Time;durP1;ratioP1;P1;durP2;ratioP2;P2;SDS_P1;SDS_P2;PMS_P1;PMS_P2;Temp;Humidity;BMP_temperature;BMP_pressure;BME280_temperature;BME280_humidity;BME280_pressure;Samples;Min_cycle;Max_cycle;Signal;HPM_P1;HPM_P2
2022/12/05 00:00:50;;;;;;;18.58;10.27;;;3.00;99.90;;;;;;5009760;28;20219;-77
2022/12/05 00:03:15;;;;;;;15.45;9.75;;;3.10;99.90;;;;;;5009417;28;20212;-76
2022/12/05 00:05:41;;;;;;;18.43;10.87;;;3.10;99.90;;;;;;4993335;28;20191;-77
2022/12/05 00:08:07;;;;;;;16.03;10.30;;;3.10;99.90;;;;;;5010966;28;20809;-77
2022/12/05 00:10:36;;;;;;;15.07;9.57;;;3.20;99.90;;;;;;4992226;28;20193;-77
2022/12/05 00:13:01;;;;;;;18.40;10.93;;;3.10;99.90;;;;;;5009288;28;20237;-77
2022/12/05 00:15:27;;;;;;;19.17;11.90;;;3.10;99.90;;;;;;5010783;28;20954;-77
2022/12/05 00:17:52;;;;;;;24.40;12.90;;;3.20;99.90;;;;;;5009261;28;20208;-76
2022/12/05 00:20:19;;;;;;;24.57;12.07;;;3.10;99.90;;;;;;5009169;28;20193;-77
2022/12/05 00:22:45;;;;;;;20.33;10.77;;;3.10;99.90;;;;;;4992879;28;20216;-78
2022/12/05 00:25:10;;;;;;;19.53;11.40;;;3.10;99.90;;;;;;4992712;28;20572;-78
2022/12/05 00:27:36;;;;;;;22.43;11.97;;;3.10;99.90;;;;;;4993036;28;20192;-78
2022/12/05 00:30:02;;;;;;;19.47;11.77;;;3.00;99.90;;;;;;5011208;28;20286;-78
2022/12/05 00:32:28;;;;;;;21.70;12.27;;;3.00;99.90;;;;;;5010813;28;21031;-78
2022/12/05 00:34:54;;;;;;;21.70;12.20;;;3.00;99.90;;;;;;5010155;28;20520;-79
2022/12/05 00:37:20;;;;;;;23.57;12.30;;;3.10;99.90;;;;;;5008877;28;20308;-79
2022/12/05 00:39:45;;;;;;;21.53;12.10;;;3.20;99.90;;;;;;5010348;28;20186;-79
2022/12/05 00:42:11;;;;;;;23.97;12.30;;;3.10;99.90;;;;;;5013778;28;20204;-77
2022/12/05 00:44:37;;;;;;;21.00;11.47;;;3.00;99.90;;;;;;5019069;28;20187;-78
2022/12/05 00:47:02;;;;;;;18.30;10.77;;;3.00;99.90;;;;;;4994470;28;20722;-78
2022/12/05 00:49:28;;;;;;;20.00;10.87;;;3.10;99.90;;;;;;4994684;28;20230;-79
2022/12/05 00:51:54;;;;;;;18.53;10.17;;;3.10;99.90;;;;;;4994084;28;20227;-78
2022/12/05 00:54:19;;;;;;;19.50;10.97;;;3.10;99.90;;;;;;5012495;28;20240;-77
2022/12/05 00:56:45;;;;;;;20.40;11.67;;;3.10;99.90;;;;;;5010025;28;20178;-78
2022/12/05 00:59:16;;;;;;;23.87;12.50;;;3.10;99.90;;;;;;5009927;28;20188;-77
2022/12/05 01:01:43;;;;;;;18.40;11.15;;;3.10;99.90;;;;;;4993385;28;20203;-77
2022/12/05 01:04:17;;;;;;;21.27;11.38;;;3.00;99.90;;;;;;5009513;28;20196;-77
2022/12/05 01:06:43;;;;;;;23.80;11.90;;;3.10;99.90;;;;;;5008760;28;20266;-77
2022/12/05 01:09:12;;;;;;;22.43;11.30;;;3.10;99.90;;;;;;5008405;28;20330;-76
2022/12/05 01:11:38;;;;;;;20.85;11.27;;;3.10;99.90;;;;;;5009767;28;20199;-77
2022/12/05 01:14:04;;;;;;;19.77;10.73;;;3.10;99.90;;;;;;5008751;28;20237;-77
2022/12/05 01:16:33;;;;;;;22.73;11.02;;;3.10;99.90;;;;;;5008458;28;20437;-77
2022/12/05 01:19:01;;;;;;;17.85;11.00;;;3.10;99.90;;;;;;5009859;28;20217;-78
2022/12/05 01:21:27;;;;;;;20.05;11.00;;;3.10;99.90;;;;;;5009420;28;20203;-76
2022/12/05 01:23:53;;;;;;;18.90;10.17;;;3.10;99.90;;;;;;5008643;28;20244;-76
2022/12/05 01:26:20;;;;;;;16.73;9.13;;;3.10;99.90;;;;;;5010018;28;20565;-78
2022/12/05 01:28:46;;;;;;;19.05;10.85;;;3.20;99.90;;;;;;4992097;28;20229;-77
2022/12/05 01:31:28;;;;;;;19.58;10.02;;;3.20;99.90;;;;;;5009963;28;20180;-76
2022/12/05 01:33:55;;;;;;;20.13;11.02;;;3.20;99.90;;;;;;5010102;28;20194;-76
2022/12/05 01:36:23;;;;;;;21.38;9.82;;;3.20;99.90;;;;;;5009865;28;20242;-77
2022/12/05 01:38:48;;;;;;;18.25;10.23;;;3.10;99.90;;;;;;5010132;28;20216;-77
2022/12/05 01:41:20;;;;;;;17.60;9.30;;;3.20;99.90;;;;;;5008431;28;20623;-77
2022/12/05 01:44:25;;;;;;;16.67;9.50;;;3.10;99.90;;;;;;5010141;28;20422;-76
2022/12/05 01:46:52;;;;;;;20.45;10.18;;;3.20;99.90;;;;;;5009951;28;20189;-76
2022/12/05 01:49:22;;;;;;;19.10;10.75;;;3.20;99.90;;;;;;5009582;28;20206;-77
2022/12/05 01:51:51;;;;;;;15.48;8.52;;;3.30;99.90;;;;;;5008182;28;20733;-76
2022/12/05 01:54:19;;;;;;;22.50;11.98;;;3.20;99.90;;;;;;5009517;28;20296;-75
2022/12/05 01:56:57;;;;;;;22.33;12.38;;;3.20;99.90;;;;;;5009201;28;20657;-76
2022/12/05 01:59:24;;;;;;;22.58;11.30;;;3.30;99.90;;;;;;5007734;28;20657;-76
2022/12/05 02:01:50;;;;;;;21.67;12.18;;;3.40;99.90;;;;;;4991156;28;20211;-76
2022/12/05 02:04:15;;;;;;;26.60;12.70;;;3.20;99.90;;;;;;5007644;28;20199;-75
2022/12/05 02:06:42;;;;;;;21.27;12.07;;;3.10;99.90;;;;;;5007814;28;20190;-79
2022/12/05 02:09:07;;;;;;;22.60;11.75;;;3.10;99.90;;;;;;5007757;28;20216;-77
2022/12/05 02:11:54;;;;;;;24.00;12.47;;;3.00;99.90;;;;;;5007811;28;20216;-76
2022/12/05 02:14:34;;;;;;;30.10;12.77;;;3.00;99.90;;;;;;5009012;28;20716;-76
2022/12/05 02:17:05;;;;;;;26.95;12.07;;;3.10;99.90;;;;;;5009121;28;20231;-77
2022/12/05 02:19:49;;;;;;;21.55;9.45;;;3.00;99.90;;;;;;5007499;28;20217;-77
2022/12/05 02:22:33;;;;;;;18.33;10.30;;;2.80;99.90;;;;;;5008702;28;20581;-77
2022/12/05 02:25:05;;;;;;;18.75;8.90;;;2.90;99.90;;;;;;5007598;28;20187;-79
2022/12/05 02:28:15;;;;;;;18.58;9.30;;;3.00;99.90;;;;;;5009118;28;20186;-76
2022/12/05 02:31:03;;;;;;;19.48;10.85;;;2.90;99.90;;;;;;4967187;28;20248;-77
2022/12/05 02:33:37;;;;;;;20.27;10.10;;;2.90;99.90;;;;;;5007604;28;20238;-80
2022/12/05 02:36:16;;;;;;;12.52;7.28;;;3.00;99.90;;;;;;5013893;28;20287;-78
2022/12/05 02:39:01;;;;;;;11.57;6.97;;;3.10;99.90;;;;;;5012914;28;20225;-78
2022/12/05 02:41:43;;;;;;;14.05;6.70;;;3.10;99.90;;;;;;5013145;28;20201;-77
2022/12/05 02:44:22;;;;;;;13.32;6.47;;;3.20;99.90;;;;;;5011890;28;20181;-78
2022/12/05 02:46:51;;;;;;;12.70;6.85;;;3.10;99.90;;;;;;5011807;28;20187;-77
2022/12/05 02:49:22;;;;;;;8.40;5.68;;;3.20;99.90;;;;;;5011784;28;20217;-78
2022/12/05 02:51:53;;;;;;;10.85;6.35;;;3.30;99.90;;;;;;5012904;28;20641;-77
2022/12/05 02:54:23;;;;;;;12.93;8.47;;;3.40;99.90;;;;;;5013167;28;20227;-77
2022/12/05 02:56:49;;;;;;;13.93;7.88;;;3.40;99.90;;;;;;5011294;28;20431;-77
2022/12/05 02:59:15;;;;;;;16.00;7.93;;;3.40;99.90;;;;;;5012801;28;20771;-79
2022/12/05 03:01:44;;;;;;;11.80;6.97;;;3.40;99.90;;;;;;5010933;28;20232;-79
2022/12/05 03:04:11;;;;;;;12.40;7.38;;;3.30;99.90;;;;;;5012171;28;20198;-78
2022/12/05 03:07:05;;;;;;;12.35;6.95;;;3.30;99.90;;;;;;5011820;28;20193;-79
2022/12/05 03:09:41;;;;;;;12.55;6.68;;;3.30;99.90;;;;;;5011932;28;20215;-77
2022/12/05 03:12:18;;;;;;;12.88;7.18;;;3.40;99.90;;;;;;5011884;28;20270;-78
2022/12/05 03:14:49;;;;;;;14.35;7.45;;;3.40;99.90;;;;;;5012099;28;20184;-78
2022/12/05 03:17:22;;;;;;;10.40;6.47;;;3.30;99.90;;;;;;5010879;28;20244;-77
2022/12/05 03:20:01;;;;;;;11.77;7.28;;;3.30;99.90;;;;;;5012764;28;20878;-77
2022/12/05 03:22:35;;;;;;;12.70;6.80;;;3.30;99.90;;;;;;5011857;28;20213;-78
2022/12/05 03:25:02;;;;;;;11.43;7.13;;;3.20;99.90;;;;;;5013406;28;20330;-77
2022/12/05 03:27:56;;;;;;;12.23;6.57;;;3.20;99.90;;;;;;5011010;28;20198;-77
2022/12/05 03:30:22;;;;;;;9.63;6.60;;;3.30;99.90;;;;;;5011857;28;20325;-77
2022/12/05 03:33:08;;;;;;;12.80;7.45;;;3.20;99.90;;;;;;5010617;28;20451;-77
2022/12/05 03:36:02;;;;;;;10.20;7.18;;;3.20;99.90;;;;;;5012129;28;20641;-75
2022/12/05 03:38:49;;;;;;;10.10;6.27;;;3.20;99.90;;;;;;5010238;28;20199;-77
2022/12/05 03:41:24;;;;;;;13.27;7.88;;;3.20;99.90;;;;;;5010728;28;20442;-76
2022/12/05 03:44:05;;;;;;;20.65;9.50;;;3.20;99.90;;;;;;5011979;28;20175;-77
2022/12/05 03:46:34;;;;;;;12.90;7.93;;;3.30;99.90;;;;;;5012262;28;20182;-76
2022/12/05 03:49:05;;;;;;;15.48;8.30;;;3.30;99.90;;;;;;5011945;28;20557;-76
2022/12/05 03:51:36;;;;;;;15.45;8.70;;;3.30;99.90;;;;;;5010515;28;20232;-75
2022/12/05 03:54:21;;;;;;;21.20;9.63;;;3.20;99.90;;;;;;5011803;28;20264;-75
2022/12/05 03:56:57;;;;;;;22.13;10.25;;;3.20;99.90;;;;;;5011821;28;20462;-75
2022/12/05 03:59:51;;;;;;;22.45;10.30;;;3.30;99.90;;;;;;5012815;28;20193;-77
2022/12/05 04:02:23;;;;;;;19.27;10.20;;;3.20;99.90;;;;;;5010354;28;20262;-76
2022/12/05 04:05:15;;;;;;;18.10;9.95;;;3.20;99.90;;;;;;5011438;28;20840;-78
2022/12/05 04:07:44;;;;;;;14.85;8.57;;;3.20;99.90;;;;;;5011329;28;20175;-78
2022/12/05 04:10:21;;;;;;;18.50;9.93;;;3.10;99.90;;;;;;5009770;28;20215;-78
2022/12/05 04:12:50;;;;;;;22.50;11.65;;;3.10;99.90;;;;;;5009609;28;20693;-77
2022/12/05 04:15:25;;;;;;;23.95;10.30;;;3.10;99.90;;;;;;5009611;28;20742;-78
2022/12/05 04:17:59;;;;;;;24.23;11.93;;;3.00;99.90;;;;;;4993486;28;20202;-78
2022/12/05 04:23:20;;;;;;;22.33;9.27;;;2.90;99.90;;;;;;5011919;28;20214;-78
2022/12/05 04:25:48;;;;;;;16.27;9.45;;;2.90;99.90;;;;;;5009601;28;20187;-77
2022/12/05 04:28:22;;;;;;;15.40;8.80;;;2.90;99.90;;;;;;5009095;28;20183;-77
2022/12/05 04:30:59;;;;;;;17.63;9.85;;;2.90;99.90;;;;;;5009090;28;20194;-77
2022/12/05 04:33:43;;;;;;;33.33;16.27;;;2.80;99.90;;;;;;5010588;28;20199;-77
2022/12/05 04:36:30;;;;;;;24.63;13.98;;;2.80;99.90;;;;;;5010534;28;20181;-76
2022/12/05 04:39:01;;;;;;;21.25;11.65;;;2.70;99.90;;;;;;5010553;28;20659;-76
2022/12/05 04:41:56;;;;;;;26.20;11.23;;;2.70;99.90;;;;;;5010468;28;20262;-76
2022/12/05 04:44:29;;;;;;;16.98;10.10;;;2.60;99.90;;;;;;5008976;28;20178;-76
2022/12/05 04:46:58;;;;;;;14.18;8.65;;;2.60;99.90;;;;;;5011615;28;20248;-77
2022/12/05 04:49:26;;;;;;;13.85;8.70;;;2.50;99.90;;;;;;5010359;28;20211;-76
2022/12/05 04:51:55;;;;;;;14.52;8.20;;;2.50;99.90;;;;;;5008681;28;20213;-76
2022/12/05 04:54:36;;;;;;;21.52;11.40;;;2.50;99.90;;;;;;5010150;28;20183;-76
2022/12/05 04:57:11;;;;;;;24.75;11.73;;;2.40;99.90;;;;;;5009386;28;20285;-76
2022/12/05 04:59:37;;;;;;;22.73;9.82;;;2.30;99.90;;;;;;5010140;28;20249;-76
2022/12/05 05:02:08;;;;;;;17.50;9.60;;;2.30;99.90;;;;;;5010336;28;20211;-76
2022/12/05 05:04:45;;;;;;;24.05;11.70;;;2.30;99.90;;;;;;5008233;28;20202;-76
2022/12/05 05:07:12;;;;;;;28.20;11.10;;;2.30;99.90;;;;;;5008758;28;20206;-75
2022/12/05 05:09:39;;;;;;;17.83;10.63;;;2.20;99.90;;;;;;5009950;28;20233;-76
2022/12/05 05:12:05;;;;;;;18.10;10.57;;;2.20;99.90;;;;;;4992408;28;20211;-76
2022/12/05 05:14:31;;;;;;;18.92;10.95;;;2.20;99.90;;;;;;5008336;28;20257;-76
2022/12/05 05:16:57;;;;;;;19.70;9.80;;;2.20;99.90;;;;;;5009760;28;20552;-77
2022/12/05 05:19:23;;;;;;;21.38;9.60;;;2.20;99.90;;;;;;5007298;28;20213;-76
2022/12/05 05:21:49;;;;;;;15.80;9.63;;;2.20;99.90;;;;;;5007171;28;20560;-76
2022/12/05 05:24:15;;;;;;;15.63;8.65;;;2.20;99.90;;;;;;5007449;28;20436;-75
2022/12/05 05:26:42;;;;;;;18.00;9.57;;;2.20;99.90;;;;;;4991084;28;20198;-77
2022/12/05 05:29:09;;;;;;;18.27;11.15;;;2.20;99.90;;;;;;5008863;28;20742;-76
2022/12/05 05:31:36;;;;;;;9.20;6.32;;;2.30;99.90;;;;;;5009000;28;20202;-75
2022/12/05 05:34:02;;;;;;;9.73;5.53;;;2.20;99.90;;;;;;5008801;28;20174;-76
2022/12/05 05:36:28;;;;;;;13.13;6.23;;;2.20;99.90;;;;;;5007331;28;20248;-75
2022/12/05 05:38:56;;;;;;;10.73;6.07;;;2.30;99.90;;;;;;5008859;28;20305;-75
2022/12/05 05:41:34;;;;;;;9.68;6.22;;;2.40;99.90;;;;;;5006887;28;20434;-76
2022/12/05 05:44:00;;;;;;;11.15;7.30;;;2.50;99.90;;;;;;5008753;28;20732;-75
2022/12/05 05:46:28;;;;;;;9.70;6.05;;;2.50;99.90;;;;;;5008918;28;20241;-76
2022/12/05 05:48:54;;;;;;;10.82;5.57;;;2.70;99.90;;;;;;5008365;28;20213;-76
2022/12/05 05:51:22;;;;;;;6.05;4.80;;;2.70;99.90;;;;;;5006843;28;20253;-76
2022/12/05 05:53:48;;;;;;;5.95;4.22;;;2.60;99.90;;;;;;5008624;28;20700;-76
2022/12/05 05:56:16;;;;;;;8.45;5.40;;;2.50;99.90;;;;;;5006285;28;20196;-74
2022/12/05 05:58:42;;;;;;;7.93;5.53;;;2.50;99.90;;;;;;5007587;28;20194;-75
2022/12/05 06:01:17;;;;;;;7.50;4.73;;;2.40;99.90;;;;;;4989861;28;20192;-75
2022/12/05 06:03:43;;;;;;;8.57;5.00;;;2.60;99.90;;;;;;5007432;28;20175;-76
2022/12/05 06:06:11;;;;;;;8.77;5.37;;;2.70;99.90;;;;;;5006367;28;20202;-75
2022/12/05 06:08:39;;;;;;;7.65;5.40;;;2.70;99.90;;;;;;5008657;28;20205;-75
2022/12/05 06:11:06;;;;;;;8.55;5.70;;;2.80;99.90;;;;;;5011277;28;20236;-74
2022/12/05 06:13:32;;;;;;;7.22;4.75;;;2.90;99.90;;;;;;5010112;28;20294;-75
2022/12/05 06:15:57;;;;;;;8.97;4.80;;;2.90;99.90;;;;;;4993653;28;20280;-75
2022/12/05 06:18:23;;;;;;;7.47;5.37;;;2.90;99.90;;;;;;5011042;28;20248;-76
2022/12/05 06:20:55;;;;;;;9.77;6.57;;;3.00;99.90;;;;;;4993419;28;20186;-75
2022/12/05 06:23:22;;;;;;;10.63;6.90;;;3.00;99.90;;;;;;5011136;28;20210;-75
2022/12/05 06:25:48;;;;;;;11.30;6.35;;;3.10;99.90;;;;;;5011446;28;20275;-75
2022/12/05 06:28:15;;;;;;;16.55;7.50;;;3.20;99.90;;;;;;5011461;28;20184;-75
2022/12/05 06:30:40;;;;;;;9.60;6.68;;;3.10;99.90;;;;;;5011030;28;20201;-75
2022/12/05 06:33:06;;;;;;;10.30;6.30;;;3.20;99.90;;;;;;5010960;28;20203;-76
2022/12/05 06:35:32;;;;;;;7.50;5.80;;;3.20;99.90;;;;;;5009694;28;20269;-75
2022/12/05 06:37:57;;;;;;;10.47;6.70;;;3.20;99.90;;;;;;5009782;28;20716;-75
2022/12/05 06:40:23;;;;;;;10.67;6.93;;;3.20;99.90;;;;;;5012185;28;20193;-75
2022/12/05 06:42:48;;;;;;;8.43;5.90;;;3.30;99.90;;;;;;4994694;28;20786;-75
2022/12/05 06:45:14;;;;;;;11.30;6.57;;;3.20;99.90;;;;;;5010885;28;20197;-76
2022/12/05 06:47:39;;;;;;;9.33;6.33;;;3.20;99.90;;;;;;5012368;28;20226;-75
2022/12/05 06:50:06;;;;;;;10.23;6.10;;;3.20;99.90;;;;;;4994154;28;20591;-76
2022/12/05 06:52:32;;;;;;;7.45;5.78;;;3.20;99.90;;;;;;5020234;28;20219;-75
2022/12/05 06:54:58;;;;;;;7.73;4.90;;;3.20;99.90;;;;;;5036608;28;20188;-77
2022/12/05 06:57:24;;;;;;;11.93;5.30;;;3.20;99.90;;;;;;5035636;28;20214;-75
2022/12/05 06:59:50;;;;;;;6.90;5.22;;;3.20;99.90;;;;;;5036581;28;20168;-77
2022/12/05 07:02:16;;;;;;;6.20;4.27;;;3.30;99.90;;;;;;5024766;28;20218;-75
2022/12/05 07:04:41;;;;;;;5.97;4.10;;;3.30;99.90;;;;;;5011120;28;20222;-75
2022/12/05 07:07:07;;;;;;;6.73;5.17;;;3.40;99.90;;;;;;5008919;28;20496;-75
2022/12/05 07:09:46;;;;;;;7.23;5.00;;;3.40;99.90;;;;;;5008914;28;20307;-75
2022/12/05 07:12:15;;;;;;;6.93;4.90;;;3.40;99.90;;;;;;5009185;28;20462;-75
2022/12/05 07:14:42;;;;;;;9.00;5.30;;;3.50;99.90;;;;;;5010420;28;20611;-75
2022/12/05 07:17:07;;;;;;;7.87;5.43;;;3.50;99.90;;;;;;5010596;28;20422;-76
2022/12/05 07:19:33;;;;;;;6.63;4.60;;;3.50;99.90;;;;;;5008606;28;20477;-76
2022/12/05 07:21:59;;;;;;;7.47;5.10;;;3.50;99.90;;;;;;5009054;28;20223;-75
2022/12/05 07:24:25;;;;;;;8.07;5.20;;;3.50;99.90;;;;;;5010602;28;20188;-76
2022/12/05 07:26:51;;;;;;;7.03;5.03;;;3.50;99.90;;;;;;4992597;28;20434;-76
2022/12/05 07:29:16;;;;;;;8.80;6.20;;;3.50;99.90;;;;;;5008895;28;20559;-75
2022/12/05 07:31:42;;;;;;;7.80;5.27;;;3.50;99.90;;;;;;5009834;28;20205;-75
2022/12/05 07:34:08;;;;;;;7.60;4.63;;;3.60;99.90;;;;;;5009030;28;20264;-76
2022/12/05 07:36:33;;;;;;;8.53;5.13;;;3.60;99.90;;;;;;4992709;28;20184;-76
2022/12/05 07:38:59;;;;;;;49.37;24.43;;;3.60;99.90;;;;;;5009615;28;20195;-76
2022/12/05 07:41:30;;;;;;;11.80;7.43;;;3.70;99.90;;;;;;4976042;28;20584;-75
2022/12/05 07:43:58;;;;;;;7.63;5.90;;;3.70;99.90;;;;;;5010211;28;20802;-75
2022/12/05 07:46:26;;;;;;;8.43;5.75;;;3.80;99.90;;;;;;5010235;28;20268;-75
2022/12/05 07:48:53;;;;;;;7.68;5.40;;;3.90;99.90;;;;;;5009998;28;20214;-76
2022/12/05 07:51:19;;;;;;;7.85;4.75;;;3.90;99.90;;;;;;5008558;28;20239;-76
2022/12/05 07:53:46;;;;;;;5.50;4.90;;;4.00;99.90;;;;;;5010095;28;20181;-76
2022/12/05 07:56:15;;;;;;;6.23;4.83;;;4.00;99.90;;;;;;5010014;28;20845;-75
2022/12/05 07:58:45;;;;;;;7.93;5.85;;;4.00;99.90;;;;;;5009794;28;21028;-75
2022/12/05 08:01:14;;;;;;;7.10;5.60;;;4.10;99.90;;;;;;5008224;28;20336;-75
2022/12/05 08:03:41;;;;;;;9.80;6.17;;;4.20;99.90;;;;;;5008107;28;20439;-76
2022/12/05 08:06:10;;;;;;;6.73;5.20;;;4.10;99.90;;;;;;5009412;28;20738;-75
2022/12/05 08:08:36;;;;;;;8.65;5.40;;;4.00;99.90;;;;;;5010050;28;20875;-75
2022/12/05 08:11:07;;;;;;;7.88;5.90;;;4.00;99.90;;;;;;5009468;28;20660;-76
2022/12/05 08:13:33;;;;;;;8.15;5.70;;;4.00;99.90;;;;;;5009103;28;20183;-76
2022/12/05 08:16:08;;;;;;;7.30;5.40;;;4.00;99.90;;;;;;5007768;28;20188;-76
2022/12/05 08:18:35;;;;;;;6.97;5.27;;;4.00;99.90;;;;;;5009139;28;20438;-76
2022/12/05 08:21:09;;;;;;;5.32;4.70;;;4.00;99.90;;;;;;5009425;28;20451;-76
2022/12/05 08:23:37;;;;;;;7.47;5.35;;;4.00;99.90;;;;;;5009178;28;20245;-76
2022/12/05 08:26:04;;;;;;;10.02;4.95;;;4.00;99.90;;;;;;5008962;28;20254;-75
2022/12/05 08:28:31;;;;;;;8.18;5.60;;;4.00;99.90;;;;;;5009105;28;20187;-75
2022/12/05 08:31:06;;;;;;;8.73;5.80;;;4.10;99.90;;;;;;5008338;28;20180;-76
2022/12/05 08:33:32;;;;;;;9.68;6.10;;;4.10;99.90;;;;;;5009361;28;20207;-76
2022/12/05 08:36:03;;;;;;;8.73;5.33;;;4.10;99.90;;;;;;5010012;28;20188;-76
2022/12/05 08:38:29;;;;;;;8.65;5.55;;;4.20;99.90;;;;;;5009671;28;20177;-76
2022/12/05 08:40:55;;;;;;;7.63;6.40;;;4.20;99.90;;;;;;5009244;28;20229;-76
2022/12/05 08:43:20;;;;;;;7.53;5.23;;;4.30;99.90;;;;;;5009182;28;20211;-76
2022/12/05 08:45:51;;;;;;;5.60;4.70;;;4.30;99.90;;;;;;5009397;28;20683;-76
2022/12/05 08:48:17;;;;;;;5.93;4.53;;;4.40;99.90;;;;;;5008099;28;20212;-76
2022/12/05 08:50:43;;;;;;;7.03;4.80;;;4.50;99.90;;;;;;5009391;28;20247;-75
2022/12/05 08:53:08;;;;;;;12.03;4.97;;;4.50;99.90;;;;;;5010105;28;20771;-76
2022/12/05 08:55:34;;;;;;;7.30;5.47;;;4.60;99.90;;;;;;5009123;28;20683;-76
2022/12/05 08:58:00;;;;;;;5.80;4.73;;;4.60;99.90;;;;;;5009151;28;20685;-75
2022/12/05 09:00:26;;;;;;;5.77;4.37;;;4.70;99.90;;;;;;5007665;28;20427;-76
2022/12/05 09:02:51;;;;;;;5.47;4.70;;;4.70;99.90;;;;;;5007615;28;20291;-76
2022/12/05 09:05:17;;;;;;;7.80;4.83;;;4.70;99.90;;;;;;5009210;28;20216;-75
2022/12/05 09:07:43;;;;;;;4.23;3.83;;;4.80;99.90;;;;;;5008754;28;20761;-76
2022/12/05 09:10:09;;;;;;;5.13;3.70;;;4.80;99.90;;;;;;5007434;28;20706;-76
2022/12/05 09:12:38;;;;;;;8.43;5.30;;;4.90;99.90;;;;;;4991359;28;20208;-75
2022/12/05 09:15:06;;;;;;;5.32;4.00;;;4.90;99.90;;;;;;5007345;28;20420;-76
2022/12/05 09:17:32;;;;;;;6.47;4.63;;;5.00;99.90;;;;;;5009001;28;20179;-76
2022/12/05 09:19:58;;;;;;;4.87;3.57;;;5.10;99.90;;;;;;5008987;28;20307;-76
2022/12/05 09:22:23;;;;;;;5.47;3.80;;;5.10;99.90;;;;;;5008192;28;20208;-75
2022/12/05 09:24:49;;;;;;;7.27;4.90;;;5.20;99.90;;;;;;5008751;28;20193;-76
2022/12/05 09:27:15;;;;;;;6.00;4.50;;;5.30;99.90;;;;;;5007004;28;20185;-75
2022/12/05 09:29:41;;;;;;;5.50;4.60;;;5.30;99.90;;;;;;5006682;28;20748;-77
2022/12/05 09:32:07;;;;;;;6.13;4.40;;;5.40;99.90;;;;;;5007830;28;20475;-76
2022/12/05 09:34:33;;;;;;;5.07;3.83;;;5.40;99.90;;;;;;5006658;28;20455;-76
2022/12/05 09:37:00;;;;;;;6.20;4.00;;;5.30;99.90;;;;;;5008277;28;20778;-76
2022/12/05 09:39:26;;;;;;;5.93;4.97;;;5.30;99.90;;;;;;5006394;28;20441;-75
2022/12/05 09:42:19;;;;;;;4.80;4.00;;;5.20;99.90;;;;;;5007582;28;20833;-76
2022/12/05 09:45:09;;;;;;;7.67;4.97;;;5.20;99.90;;;;;;5007866;28;20427;-75
2022/12/05 09:47:35;;;;;;;6.50;5.30;;;5.20;99.90;;;;;;5007893;28;20533;-76
2022/12/05 09:50:19;;;;;;;8.70;5.90;;;5.30;99.90;;;;;;5008450;28;20462;-76
2022/12/05 09:53:01;;;;;;;9.27;6.57;;;5.40;99.90;;;;;;5006495;28;20291;-76
2022/12/05 09:55:52;;;;;;;12.30;7.73;;;5.50;99.90;;;;;;5007639;28;20420;-76
2022/12/05 09:58:32;;;;;;;7.20;5.07;;;5.60;99.90;;;;;;4986315;28;20520;-76
2022/12/05 10:01:40;;;;;;;9.80;5.75;;;5.70;99.90;;;;;;5007810;28;20439;-76
2022/12/05 10:04:33;;;;;;;6.07;4.77;;;5.60;99.90;;;;;;5005850;28;20183;-76
2022/12/05 10:07:11;;;;;;;17.30;9.63;;;5.60;99.90;;;;;;5007907;28;20412;-75
2022/12/05 10:10:15;;;;;;;16.30;10.00;;;5.60;99.90;;;;;;5007789;28;20454;-76
2022/12/05 10:13:12;;;;;;;17.73;10.30;;;5.70;99.90;;;;;;5005874;28;20443;-76
2022/12/05 10:15:47;;;;;;;20.40;13.10;;;5.70;99.90;;;;;;5007824;28;20448;-76
2022/12/05 10:18:31;;;;;;;22.07;13.50;;;5.60;99.90;;;;;;5006703;28;21058;-76
2022/12/05 10:21:04;;;;;;;17.13;11.97;;;5.60;99.90;;;;;;5008209;28;20442;-76
2022/12/05 10:23:45;;;;;;;17.53;10.77;;;5.60;99.90;;;;;;5007745;28;20432;-76
2022/12/05 10:26:14;;;;;;;14.97;9.27;;;5.60;99.90;;;;;;5008063;28;20411;-75
2022/12/05 10:28:53;;;;;;;19.43;12.30;;;5.60;99.90;;;;;;5006743;28;20416;-75
2022/12/05 10:31:24;;;;;;;22.70;14.00;;;5.50;99.90;;;;;;5008225;28;20474;-76
2022/12/05 10:34:13;;;;;;;20.03;12.30;;;5.50;99.90;;;;;;5008346;28;20490;-76
2022/12/05 10:36:53;;;;;;;15.27;11.07;;;5.50;99.90;;;;;;5007946;28;21051;-75
2022/12/05 10:39:19;;;;;;;14.13;8.97;;;5.50;99.90;;;;;;5006852;28;20473;-75
2022/12/05 10:41:44;;;;;;;9.37;6.13;;;5.60;99.90;;;;;;5006434;28;20432;-75
2022/12/05 10:44:10;;;;;;;10.17;7.67;;;5.70;99.90;;;;;;5007729;28;20177;-76
2022/12/05 10:46:36;;;;;;;8.87;6.67;;;5.80;99.90;;;;;;4989871;28;20214;-76
2022/12/05 10:49:01;;;;;;;12.10;6.70;;;5.80;99.90;;;;;;5006297;28;20213;-75
2022/12/05 10:51:28;;;;;;;6.63;4.87;;;5.90;99.90;;;;;;5006253;28;20192;-75
2022/12/05 10:53:53;;;;;;;10.97;4.80;;;5.90;99.90;;;;;;4989883;28;20193;-76
2022/12/05 10:56:43;;;;;;;14.63;7.73;;;5.90;99.90;;;;;;5010026;28;20416;-75
2022/12/05 10:59:12;;;;;;;12.60;8.50;;;6.00;99.90;;;;;;5009772;28;20432;-76
2022/12/05 11:01:45;;;;;;;5.00;4.10;;;6.20;99.90;;;;;;5011393;28;20443;-75
2022/12/05 11:04:41;;;;;;;4.73;4.10;;;6.20;99.90;;;;;;5011415;28;20400;-75
2022/12/05 11:07:06;;;;;;;5.77;4.03;;;6.20;99.90;;;;;;5011251;28;20408;-76
2022/12/05 11:09:35;;;;;;;6.00;4.60;;;6.30;99.90;;;;;;5011021;28;20483;-75
2022/12/05 11:12:19;;;;;;;6.67;4.57;;;6.30;99.90;;;;;;5010930;28;20275;-75
2022/12/05 11:15:21;;;;;;;6.73;4.67;;;6.30;99.90;;;;;;5010828;28;20503;-75
2022/12/05 11:17:49;;;;;;;6.47;4.80;;;6.20;99.90;;;;;;5010639;28;20447;-76
2022/12/05 11:20:17;;;;;;;6.30;4.67;;;6.20;99.90;;;;;;5010703;28;20777;-75
2022/12/05 11:22:48;;;;;;;7.07;5.40;;;6.30;99.90;;;;;;5010165;28;20436;-75
2022/12/05 11:25:35;;;;;;;6.30;4.50;;;6.30;99.90;;;;;;5010413;28;20400;-76
2022/12/05 11:28:33;;;;;;;5.00;4.20;;;6.20;99.90;;;;;;5010305;28;20770;-75
2022/12/05 11:31:19;;;;;;;5.20;4.25;;;6.20;99.90;;;;;;5010222;28;20925;-75
2022/12/05 11:34:01;;;;;;;6.37;4.90;;;6.20;99.90;;;;;;5010738;28;20207;-76
2022/12/05 11:36:38;;;;;;;6.00;3.67;;;6.20;99.90;;;;;;5009692;28;20427;-75
2022/12/05 11:39:04;;;;;;;5.80;4.53;;;6.20;99.90;;;;;;5009777;28;20654;-76
2022/12/05 11:41:33;;;;;;;10.03;4.67;;;6.10;99.90;;;;;;5008565;28;20448;-76
2022/12/05 11:44:23;;;;;;;5.77;3.90;;;6.10;99.90;;;;;;5009246;28;20211;-76
2022/12/05 11:47:26;;;;;;;4.10;3.70;;;6.20;99.90;;;;;;5011226;28;20535;-76
2022/12/05 11:50:24;;;;;;;4.83;4.00;;;6.20;99.90;;;;;;4967576;28;20931;-75
2022/12/05 11:53:24;;;;;;;7.50;4.10;;;6.10;99.90;;;;;;5009975;28;20428;-76
2022/12/05 11:56:01;;;;;;;3.43;2.60;;;6.20;99.90;;;;;;5009811;28;20404;-76
2022/12/05 11:58:35;;;;;;;4.97;3.00;;;6.20;99.90;;;;;;5010170;28;20783;-76
2022/12/05 12:01:13;;;;;;;3.43;2.20;;;6.20;99.90;;;;;;5007824;28;20428;-76
2022/12/05 12:03:58;;;;;;;4.00;2.23;;;6.10;99.90;;;;;;5009484;28;20412;-76
2022/12/05 12:06:44;;;;;;;3.37;2.30;;;6.20;99.90;;;;;;5008073;28;20416;-75
2022/12/05 12:09:32;;;;;;;1.90;1.80;;;6.20;99.90;;;;;;5007836;28;20486;-76
2022/12/05 12:12:22;;;;;;;4.10;2.70;;;6.20;99.90;;;;;;5009155;28;20523;-75
2022/12/05 12:15:12;;;;;;;2.03;1.83;;;6.30;99.90;;;;;;5007209;28;20960;-76
2022/12/05 12:17:43;;;;;;;2.33;1.87;;;6.30;99.90;;;;;;5009313;28;20432;-75
2022/12/05 12:20:36;;;;;;;2.60;2.10;;;6.30;99.90;;;;;;5009856;28;20411;-75
2022/12/05 12:23:44;;;;;;;2.10;1.90;;;6.40;99.90;;;;;;5017419;28;20436;-76
2022/12/05 12:26:36;;;;;;;1.63;1.53;;;6.30;99.90;;;;;;5011910;28;20470;-76
2022/12/05 12:29:40;;;;;;;3.37;1.57;;;6.30;99.90;;;;;;4986705;28;20491;-75
2022/12/05 12:32:31;;;;;;;1.83;1.73;;;6.20;99.90;;;;;;5011026;28;20431;-75
2022/12/05 12:35:15;;;;;;;1.37;1.27;;;6.10;99.90;;;;;;5010815;28;20956;-75
2022/12/05 12:38:16;;;;;;;2.00;1.37;;;6.20;99.90;;;;;;5009171;28;20455;-75
2022/12/05 12:40:53;;;;;;;3.30;1.70;;;6.20;99.90;;;;;;5010685;28;20804;-78
2022/12/05 12:43:45;;;;;;;2.87;1.70;;;6.30;99.90;;;;;;5010982;28;20436;-76
2022/12/05 12:46:23;;;;;;;2.07;1.90;;;6.20;99.90;;;;;;5008247;28;20521;-75
2022/12/05 12:49:27;;;;;;;2.60;2.00;;;6.10;99.90;;;;;;5008168;28;20526;-75
2022/12/05 12:52:00;;;;;;;2.17;1.30;;;6.10;99.90;;;;;;5007861;28;20443;-75
2022/12/05 12:54:58;;;;;;;3.70;1.60;;;6.10;99.90;;;;;;5007935;28;20466;-75
2022/12/05 12:58:00;;;;;;;1.40;1.30;;;6.20;99.90;;;;;;4992684;28;20519;-75
2022/12/05 13:01:04;;;;;;;2.90;2.03;;;6.30;99.90;;;;;;5007128;28;20522;-75
2022/12/05 13:04:01;;;;;;;2.30;2.00;;;6.20;99.90;;;;;;5007426;28;20455;-75
2022/12/05 13:06:32;;;;;;;2.00;1.80;;;6.30;99.90;;;;;;5007677;28;20416;-76
2022/12/05 13:09:04;;;;;;;2.97;2.33;;;6.50;99.90;;;;;;5007722;28;20889;-75
2022/12/05 13:11:36;;;;;;;2.60;2.37;;;6.50;99.90;;;;;;5007586;28;20491;-75
2022/12/05 13:14:08;;;;;;;3.03;2.73;;;6.50;99.90;;;;;;5008492;28;20412;-75
2022/12/05 13:16:44;;;;;;;2.73;2.53;;;6.60;99.90;;;;;;5008536;28;20427;-76
2022/12/05 13:19:39;;;;;;;3.70;2.60;;;6.50;99.90;;;;;;5008126;28;20931;-76
2022/12/05 13:22:07;;;;;;;4.40;2.93;;;6.50;99.90;;;;;;5008369;28;20440;-76